< Typhoon 199216 1992 Season Typhoon 199218 >
Typhoon 199217 (RYAN)
General InformationTrack Information on Google MapsDetailed Wind InformationList of All Images || Disaster Info.ResourceGoogle EarthGE AnimationAtom FeedGeoJSON
Detalied Best Track (Time Zone = UTC)
Year Month Day Hour Lat. Long. Pressure (hPa) Wind (kt) Class Image Chart
1992 8 31 18 17.0 151.0 1008 0 2 Image Chart
1992 9 1 00 17.0 149.0 1008 0 2 Image Chart
1992 9 1 06 17.0 147.8 1008 0 2 Image Chart
1992 9 1 12 17.1 147.3 1006 0 2 Image Chart
1992 9 1 18 17.2 147.0 1004 0 2 Image Chart
1992 9 2 00 17.6 146.9 998 35 3 Image Chart
1992 9 2 06 18.1 146.8 994 40 3 Image Chart
1992 9 2 12 18.5 146.8 985 45 3 Image Chart
1992 9 2 18 18.6 146.9 980 50 4 Image Chart
1992 9 3 00 18.7 147.1 980 50 4 Image Chart
1992 9 3 06 18.9 147.2 975 60 4 Image Chart
1992 9 3 12 19.2 146.8 970 65 5 Image Chart
1992 9 3 18 19.2 146.6 965 70 5 Image Chart
1992 9 4 00 18.9 146.7 965 70 5 Image Chart
1992 9 4 06 19.0 147.0 965 70 5 Image Chart
1992 9 4 12 19.2 147.0 960 75 5 Image Chart
1992 9 4 18 19.3 147.0 955 75 5 Image Chart
1992 9 5 00 19.5 147.0 955 75 5 Image Chart
1992 9 5 06 19.8 146.9 955 75 5 Image Chart
1992 9 5 12 20.0 146.8 955 75 5 Image Chart
1992 9 5 18 20.7 146.9 950 80 5 Image Chart
1992 9 6 00 21.4 147.3 945 85 5 Image Chart
1992 9 6 06 22.7 147.8 945 85 5 Image Chart
1992 9 6 12 23.3 148.1 945 85 5 Image Chart
1992 9 6 18 24.2 148.6 945 85 5 Image Chart
1992 9 7 00 25.0 149.4 945 85 5 Image Chart
1992 9 7 06 25.5 149.8 945 85 5 Image Chart
1992 9 7 12 26.1 150.1 945 85 5 Image Chart
1992 9 7 18 26.5 150.1 945 85 5 Image Chart
1992 9 8 00 26.9 150.0 950 80 5 Image Chart
1992 9 8 06 27.5 149.5 950 80 5 Image Chart
1992 9 8 12 27.8 148.8 950 80 5 Image Chart
1992 9 8 18 28.1 148.0 955 75 5 Image Chart
1992 9 9 00 28.5 147.3 955 75 5 Image Chart
1992 9 9 06 29.3 146.4 955 75 5 Image Chart
1992 9 9 12 29.9 145.6 955 75 5 Image Chart
1992 9 9 18 30.7 144.9 960 75 5 Image Chart
1992 9 10 00 31.5 144.4 960 75 5 Image Chart
1992 9 10 06 32.6 144.1 960 75 5 Image Chart
1992 9 10 09 33.2 144.1 960 75 5 Image Chart
1992 9 10 12 33.8 144.2 960 75 5 Image Chart
1992 9 10 15 34.4 144.3 965 70 5 Image Chart
1992 9 10 18 35.1 144.7 965 70 5 Image Chart
1992 9 10 21 35.8 145.0 965 70 5 Image Chart
1992 9 11 00 36.8 145.7 965 70 5 Image Chart
1992 9 11 03 38.2 146.0 965 70 5 Image Chart
1992 9 11 06 39.9 146.3 965 70 5 Image Chart
1992 9 11 09 41.5 146.8 965 70 5 Image Chart
1992 9 11 12 43.7 146.9 965 65 5 Image Chart
1992 9 11 15 44.9 146.9 965 65 5 Image Chart
1992 9 11 18 46.3 147.1 970 60 4 Image Chart
1992 9 11 21 47.3 147.5 970 60 4 Image Chart
1992 9 12 00 48.8 147.5 970 0 6 Image Chart
1992 9 12 06 52.0 148.0 970 0 6 Image Chart
1992 9 12 12 54.0 148.0 974 0 6 Image Chart
1992 9 12 18 56.5 149.0 976 0 6 Image Chart
1992 9 13 00 57.5 149.0 980 0 6 Image Chart
1992 9 13 06 59.0 149.0 984 0 6 Image Chart
1992 9 13 12 60.5 148.5 994 0 6 Image Chart
Japan Meteorological Agency Best Track Data | Correction Date : 1992-12-25
< Typhoon 199216 1992 Season Typhoon 199218 >

Help